Armbrust, Pennsylvania
Current Conditions -  °F | °C
As of 2:35 AM on Sunday 23 Nov 2014 (Local Time) from KLBE Reporting Station
Scattered Clouds Scattered Clouds  
Wind Chill: 50°   Ceiling: Unl
Heat Index: 50°   Visibility: 10mi
Dew Point: 25°   Wind: 10mph
Humidity: 37%   Direction: 210°SSW
Pressure: 30.12"   Gusts: NA
Location:  40.22°N, 79.55°W
Report Text: KLBE 230735Z AUTO 21009KT 10SM FEW080 SCT095 10/M04 A3012 RMK AO2
Loading
Personal Weather Stations






























Interactive Weather Map New forecast layout! Learn more

10-Day Weather Forecast

Advertisements
Track Severe Weather on mobile